createdAt,value
2022-08-05T00:00:46.403Z,23.36
2022-08-05T00:06:04.886Z,23.30
2022-08-05T00:11:24.005Z,23.25
2022-08-05T00:16:35.368Z,23.12
2022-08-05T00:21:38.448Z,23.00
2022-08-05T00:26:50.898Z,23.17
2022-08-05T00:32:13.435Z,23.10
2022-08-05T00:37:16.287Z,22.92
2022-08-05T00:42:37.219Z,22.67
2022-08-05T00:47:56.886Z,22.62
2022-08-05T00:52:59.540Z,22.65
2022-08-05T00:58:01.294Z,22.68
2022-08-05T01:03:03.217Z,22.62
2022-08-05T01:08:31.590Z,22.37
2022-08-05T01:13:59.026Z,22.30
2022-08-05T01:19:14.298Z,22.30
2022-08-05T01:24:33.311Z,22.44
2022-08-05T01:29:40.554Z,22.13
2022-08-05T01:34:48.800Z,22.09
2022-08-05T01:39:52.309Z,22.19
2022-08-05T01:45:02.405Z,21.91
2022-08-05T01:50:08.336Z,21.95
2022-08-05T01:55:20.800Z,21.83
2022-08-05T02:00:30.721Z,21.84
2022-08-05T02:05:36.734Z,21.77
2022-08-05T02:10:44.046Z,21.63
2022-08-05T02:15:54.021Z,21.63
2022-08-05T02:21:05.673Z,21.43
2022-08-05T02:26:10.139Z,21.42
2022-08-05T02:31:21.865Z,21.35
2022-08-05T02:36:24.772Z,21.38
2022-08-05T02:41:36.370Z,21.30
2022-08-05T02:47:00.208Z,21.37
2022-08-05T02:52:04.723Z,21.16
2022-08-05T02:58:10.936Z,21.04
2022-08-05T03:02:40.822Z,21.04
2022-08-05T03:08:01.698Z,20.87
2022-08-05T03:13:16.580Z,20.98
2022-08-05T03:18:18.617Z,20.80
2022-08-05T03:23:26.918Z,20.61
2022-08-05T03:28:31.679Z,20.72
2022-08-05T03:33:51.301Z,20.91
2022-08-05T03:38:54.944Z,20.83
2022-08-05T03:44:08.633Z,20.73
2022-08-05T03:49:13.110Z,20.85
2022-08-05T03:56:03.862Z,21.02
2022-08-05T04:00:09.239Z,21.29
2022-08-05T04:05:17.925Z,21.37
2022-08-05T04:10:20.656Z,21.37
2022-08-05T04:15:24.418Z,21.51
2022-08-05T04:20:26.293Z,21.72
2022-08-05T04:25:56.518Z,21.80
2022-08-05T04:30:49.731Z,21.84
2022-08-05T04:36:15.558Z,22.37
2022-08-05T04:41:13.195Z,22.76
2022-08-05T04:46:28.491Z,22.97
2022-08-05T04:51:30.740Z,23.42
2022-08-05T04:56:36.762Z,23.85
2022-08-05T05:02:08.196Z,24.05
2022-08-05T05:07:00.357Z,23.94
2022-08-05T05:12:04.439Z,24.04
2022-08-05T05:17:09.386Z,24.10
2022-08-05T05:22:23.406Z,24.38
2022-08-05T05:27:45.198Z,23.71
2022-08-05T05:32:50.347Z,24.88
2022-08-05T05:37:59.661Z,24.77
2022-08-05T05:43:02.403Z,25.17
2022-08-05T05:48:08.060Z,25.06
2022-08-05T05:53:21.164Z,25.57
2022-08-05T05:58:31.491Z,25.29
2022-08-05T06:03:53.610Z,26.12
2022-08-05T06:08:55.828Z,26.22
2022-08-05T06:13:57.582Z,26.75
2022-08-05T06:19:05.960Z,26.80
2022-08-05T06:24:11.535Z,27.81
2022-08-05T06:29:25.083Z,31.36
2022-08-05T06:34:35.940Z,31.91
2022-08-05T06:39:39.578Z,31.20
2022-08-05T06:44:43.423Z,30.65
2022-08-05T06:50:00.619Z,29.45
2022-08-05T06:55:04.547Z,28.04
2022-08-05T07:00:06.960Z,28.51
2022-08-05T07:05:15.366Z,30.03
2022-08-05T07:10:20.942Z,29.03
2022-08-05T07:16:01.965Z,28.98
2022-08-05T07:21:04.639Z,28.89
2022-08-05T07:26:07.306Z,29.60
2022-08-05T07:31:08.964Z,27.97
2022-08-05T07:36:21.507Z,28.83
2022-08-05T07:42:13.712Z,29.52
2022-08-05T07:46:49.376Z,30.34
2022-08-05T07:51:54.344Z,33.41
2022-08-05T07:57:02.072Z,32.03
2022-08-05T08:02:26.848Z,31.00
2022-08-05T08:07:39.737Z,33.17
2022-08-05T08:12:55.108Z,30.75
2022-08-05T08:18:01.960Z,29.54
2022-08-05T08:23:04.684Z,30.40
2022-08-05T08:28:06.357Z,33.82
2022-08-05T08:33:19.899Z,34.82
2022-08-05T08:38:35.987Z,35.75
2022-08-05T08:45:17.127Z,32.27
2022-08-05T08:50:22.533Z,28.93
2022-08-05T08:54:27.685Z,33.74
2022-08-05T08:59:33.665Z,35.93
2022-08-05T09:04:58.621Z,35.86
2022-08-05T09:09:59.450Z,34.45
2022-08-05T09:15:06.517Z,38.69
2022-08-05T09:20:09.375Z,37.19
2022-08-05T09:25:13.466Z,33.36
2022-08-05T09:30:17.119Z,32.88
2022-08-05T09:35:27.371Z,36.00
2022-08-05T09:40:33.647Z,35.13
2022-08-05T09:46:06.960Z,38.64
2022-08-05T09:51:15.231Z,35.14
2022-08-05T09:56:29.845Z,33.70
2022-08-05T10:01:36.901Z,35.73
2022-08-05T10:06:59.232Z,37.18
2022-08-05T10:12:30.833Z,38.25
2022-08-05T10:17:37.613Z,39.54
2022-08-05T10:22:50.743Z,36.92
2022-08-05T10:28:13.104Z,38.08
2022-08-05T10:33:15.713Z,37.87
2022-08-05T10:38:21.128Z,36.17
2022-08-05T10:43:45.839Z,36.89
2022-08-05T10:49:01.462Z,34.04
2022-08-05T10:54:28.459Z,35.72
2022-08-05T11:00:03.740Z,34.51
2022-08-05T11:04:55.298Z,36.89
2022-08-05T11:10:04.142Z,36.26
2022-08-05T11:16:00.755Z,38.97
2022-08-05T11:20:51.040Z,37.05
2022-08-05T11:26:12.033Z,38.34
2022-08-05T11:31:19.525Z,39.63
2022-08-05T11:36:52.891Z,39.42
2022-08-05T11:42:02.430Z,40.91
2022-08-05T11:47:11.170Z,37.80
2022-08-05T11:52:29.204Z,39.65
2022-08-05T11:58:08.557Z,39.22
2022-08-05T12:02:53.772Z,38.63
2022-08-05T12:08:08.073Z,37.58
2022-08-05T12:13:16.890Z,37.67
2022-08-05T12:18:34.657Z,36.66
2022-08-05T12:23:51.217Z,39.54
2022-08-05T12:28:52.873Z,38.51
2022-08-05T12:33:58.273Z,37.06
2022-08-05T12:39:00.691Z,35.63
2022-08-05T12:44:05.872Z,36.83
2022-08-05T12:49:14.953Z,34.75
2022-08-05T12:54:32.326Z,35.20
2022-08-05T13:00:08.703Z,37.50
2022-08-05T13:05:08.403Z,38.03
2022-08-05T13:10:19.531Z,37.51
2022-08-05T13:15:24.478Z,36.87
2022-08-05T13:20:40.366Z,35.67
2022-08-05T13:25:51.754Z,37.70
2022-08-05T13:31:10.993Z,37.02
2022-08-05T13:36:16.492Z,35.81
2022-08-05T13:41:18.197Z,36.34
2022-08-05T13:46:30.758Z,36.36
2022-08-05T13:51:46.286Z,35.83
2022-08-05T13:56:50.833Z,36.12
2022-08-05T14:02:00.092Z,35.75
2022-08-05T14:07:26.514Z,35.22
2022-08-05T14:12:32.274Z,34.90
2022-08-05T14:17:35.307Z,35.95
2022-08-05T14:22:37.262Z,35.84
2022-08-05T14:27:40.270Z,35.28
2022-08-05T14:32:49.165Z,35.56
2022-08-05T14:37:55.438Z,35.19
2022-08-05T14:42:57.359Z,35.18
2022-08-05T14:48:02.890Z,34.92
2022-08-05T14:53:06.359Z,35.27
2022-08-05T14:58:10.888Z,34.99
2022-08-05T15:03:13.963Z,35.10
2022-08-05T15:08:17.892Z,34.17
2022-08-05T15:13:46.481Z,34.04
2022-08-05T15:18:52.075Z,34.53
2022-08-05T15:23:54.431Z,34.04
2022-08-05T15:28:56.074Z,34.69
2022-08-05T15:34:18.634Z,34.71
2022-08-05T15:40:59.226Z,34.19
2022-08-05T15:44:41.795Z,34.29
2022-08-05T15:49:56.560Z,34.14
2022-08-05T15:55:00.675Z,34.11
2022-08-05T16:00:08.066Z,33.94
2022-08-05T16:05:09.847Z,33.87
2022-08-05T16:10:13.033Z,32.98
2022-08-05T16:15:18.656Z,32.83
2022-08-05T16:20:20.554Z,33.21
2022-08-05T16:25:22.238Z,33.03
2022-08-05T16:30:36.313Z,33.04
2022-08-05T16:35:42.296Z,32.91
2022-08-05T16:40:51.721Z,32.52
2022-08-05T16:46:04.466Z,32.08
2022-08-05T16:51:10.776Z,31.84
2022-08-05T16:56:12.715Z,31.59
2022-08-05T17:01:14.498Z,31.79
2022-08-05T17:06:16.601Z,31.52
2022-08-05T17:11:18.590Z,31.32
2022-08-05T17:16:37.090Z,30.97
2022-08-05T17:21:39.566Z,30.94
2022-08-05T17:26:41.772Z,30.87
2022-08-05T17:31:57.335Z,30.71
2022-08-05T17:37:00.778Z,30.53
2022-08-05T17:42:28.612Z,30.30
2022-08-05T17:47:24.476Z,29.73
2022-08-05T17:52:26.443Z,29.01
2022-08-05T17:57:28.537Z,28.58
2022-08-05T18:02:30.255Z,27.89
2022-08-05T18:07:41.313Z,27.22
2022-08-05T18:12:44.015Z,26.85
2022-08-05T18:17:59.160Z,26.49
2022-08-05T18:23:09.001Z,26.15
2022-08-05T18:28:16.381Z,25.90
2022-08-05T18:33:22.665Z,25.49
2022-08-05T18:38:26.051Z,25.23
2022-08-05T18:43:27.967Z,25.10
2022-08-05T18:48:33.740Z,24.83
2022-08-05T18:53:43.181Z,24.63
2022-08-05T18:58:54.954Z,24.50
2022-08-05T19:04:03.085Z,24.44
2022-08-05T19:09:07.279Z,24.25
2022-08-05T19:14:44.807Z,24.34
2022-08-05T19:19:30.703Z,24.43
2022-08-05T19:24:34.609Z,23.90
2022-08-05T19:29:37.432Z,23.29
2022-08-05T19:34:40.715Z,23.23
2022-08-05T19:39:45.820Z,22.84
2022-08-05T19:44:53.621Z,22.73
2022-08-05T19:50:00.903Z,22.37
2022-08-05T19:55:07.019Z,22.68
2022-08-05T20:00:24.972Z,22.15
2022-08-05T20:05:27.458Z,22.16
2022-08-05T20:10:45.105Z,22.31
2022-08-05T20:15:56.831Z,22.19
2022-08-05T20:21:00.052Z,21.99
2022-08-05T20:26:03.621Z,21.73
2022-08-05T20:31:07.385Z,22.01
2022-08-05T20:36:10.060Z,22.09
2022-08-05T20:41:23.725Z,21.78
2022-08-05T20:46:28.329Z,21.67
2022-08-05T20:51:29.983Z,21.27
2022-08-05T20:56:42.323Z,21.24
2022-08-05T21:01:45.010Z,21.00
2022-08-05T21:06:46.805Z,20.95
2022-08-05T21:12:06.884Z,21.25
2022-08-05T21:17:10.554Z,20.95
2022-08-05T21:22:12.213Z,21.13
2022-08-05T21:27:16.636Z,21.09
2022-08-05T21:32:20.109Z,21.19
2022-08-05T21:37:22.051Z,21.20
2022-08-05T21:42:41.099Z,20.85
2022-08-05T21:47:56.572Z,20.70
2022-08-05T21:53:04.728Z,20.59
2022-08-05T21:58:19.526Z,20.28
2022-08-05T22:03:48.494Z,20.69
2022-08-05T22:08:42.982Z,20.36
2022-08-05T22:14:06.627Z,20.58
2022-08-05T22:19:56.374Z,20.40
2022-08-05T22:24:52.470Z,20.52
2022-08-05T22:29:55.166Z,20.33
2022-08-05T22:34:56.851Z,19.98
2022-08-05T22:39:58.661Z,20.18
2022-08-05T22:45:00.570Z,20.21
2022-08-05T22:50:20.522Z,20.09
2022-08-05T22:55:24.691Z,19.38
2022-08-05T23:00:28.291Z,19.02
2022-08-05T23:05:35.894Z,18.82
2022-08-05T23:10:38.190Z,18.82
2022-08-05T23:15:40.633Z,18.61
2022-08-05T23:20:43.189Z,18.56
2022-08-05T23:25:53.571Z,18.70
2022-08-05T23:31:02.293Z,18.62
2022-08-05T23:36:17.664Z,18.41
2022-08-05T23:41:19.553Z,18.40
2022-08-05T23:46:22.206Z,18.45
2022-08-05T23:51:23.975Z,18.51
2022-08-05T23:56:27.391Z,18.16
